Letona, Arkansas
Current Conditions -  °F | °C
As of 9:56 AM on Friday 28 Nov 2014 (Local Time) from KSRC Reporting Station
Clear Clear  
Wind Chill: 38°   Ceiling: Unl
Heat Index: 43°   Visibility: 10mi
Dew Point: 34°   Wind: 9mph
Humidity: 71%   Direction: 180°S
Pressure: 30.36"   Gusts: NA
Location:  35.36°N, 91.83°W
Report Text: KSRC 281556Z AUTO 18008KT 10SM CLR 06/01 A3036 RMK AO2 SLP288 T00610011 TSNO
Loading
Personal Weather Stations






























Interactive Weather Map New forecast layout! Learn more

10-Day Weather Forecast

Advertisements
Track Severe Weather on mobile